sensor_id;sensor_type;location;lat;lon;timestamp;temperature;humidity
18712;DHT22;9485;49.386;8.674;2023-10-19T00:00:03;16.70;78.60
18712;DHT22;9485;49.386;8.674;2023-10-19T00:05:38;16.70;78.90
18712;DHT22;9485;49.386;8.674;2023-10-19T00:11:02;16.80;79.10
18712;DHT22;9485;49.386;8.674;2023-10-19T00:16:27;16.70;79.10
18712;DHT22;9485;49.386;8.674;2023-10-19T00:21:49;16.70;78.90
18712;DHT22;9485;49.386;8.674;2023-10-19T00:27:15;16.70;78.90
18712;DHT22;9485;49.386;8.674;2023-10-19T00:32:38;16.60;78.90
18712;DHT22;9485;49.386;8.674;2023-10-19T00:38:00;16.60;78.90
18712;DHT22;9485;49.386;8.674;2023-10-19T00:43:42;16.50;79.00
18712;DHT22;9485;49.386;8.674;2023-10-19T00:49:04;16.40;79.40
18712;DHT22;9485;49.386;8.674;2023-10-19T00:54:28;16.40;79.70
18712;DHT22;9485;49.386;8.674;2023-10-19T00:59:56;16.40;80.10
18712;DHT22;9485;49.386;8.674;2023-10-19T01:05:30;16.30;80.40
18712;DHT22;9485;49.386;8.674;2023-10-19T01:10:54;16.40;80.60
18712;DHT22;9485;49.386;8.674;2023-10-19T01:16:18;16.40;80.70
18712;DHT22;9485;49.386;8.674;2023-10-19T01:21:42;16.40;81.00
18712;DHT22;9485;49.386;8.674;2023-10-19T01:27:07;16.50;81.30
18712;DHT22;9485;49.386;8.674;2023-10-19T01:32:30;16.50;81.40
18712;DHT22;9485;49.386;8.674;2023-10-19T01:37:50;16.50;81.50
18712;DHT22;9485;49.386;8.674;2023-10-19T01:43:12;16.60;81.60
18712;DHT22;9485;49.386;8.674;2023-10-19T01:48:40;16.60;81.90
18712;DHT22;9485;49.386;8.674;2023-10-19T01:54:01;16.70;81.90
18712;DHT22;9485;49.386;8.674;2023-10-19T01:59:28;16.70;82.00
18712;DHT22;9485;49.386;8.674;2023-10-19T02:04:51;16.80;82.20
18712;DHT22;9485;49.386;8.674;2023-10-19T02:10:13;16.80;82.00
18712;DHT22;9485;49.386;8.674;2023-10-19T02:15:36;16.80;81.90
18712;DHT22;9485;49.386;8.674;2023-10-19T02:20:58;16.80;82.10
18712;DHT22;9485;49.386;8.674;2023-10-19T02:26:21;16.80;82.30
18712;DHT22;9485;49.386;8.674;2023-10-19T02:31:47;16.90;82.40
18712;DHT22;9485;49.386;8.674;2023-10-19T02:37:08;16.90;82.40
18712;DHT22;9485;49.386;8.674;2023-10-19T02:42:29;16.90;82.30
18712;DHT22;9485;49.386;8.674;2023-10-19T02:47:52;16.90;82.30
18712;DHT22;9485;49.386;8.674;2023-10-19T02:53:12;16.90;82.20
18712;DHT22;9485;49.386;8.674;2023-10-19T02:58:33;16.90;83.00
18712;DHT22;9485;49.386;8.674;2023-10-19T03:03:55;16.90;82.30
18712;DHT22;9485;49.386;8.674;2023-10-19T03:09:19;16.90;82.50
18712;DHT22;9485;49.386;8.674;2023-10-19T03:14:48;16.90;82.70
18712;DHT22;9485;49.386;8.674;2023-10-19T03:20:10;16.90;82.70
18712;DHT22;9485;49.386;8.674;2023-10-19T03:25:31;16.90;82.80
18712;DHT22;9485;49.386;8.674;2023-10-19T03:31:09;16.90;82.90
18712;DHT22;9485;49.386;8.674;2023-10-19T03:36:39;16.90;82.90
18712;DHT22;9485;49.386;8.674;2023-10-19T03:42:01;16.90;83.10
18712;DHT22;9485;49.386;8.674;2023-10-19T03:47:25;16.90;83.10
18712;DHT22;9485;49.386;8.674;2023-10-19T03:52:56;16.90;83.30
18712;DHT22;9485;49.386;8.674;2023-10-19T03:58:17;17.00;84.30
18712;DHT22;9485;49.386;8.674;2023-10-19T04:03:39;17.00;83.90
18712;DHT22;9485;49.386;8.674;2023-10-19T04:09:01;17.10;84.10
18712;DHT22;9485;49.386;8.674;2023-10-19T04:14:24;17.10;84.30
18712;DHT22;9485;49.386;8.674;2023-10-19T04:19:44;17.20;84.40
18712;DHT22;9485;49.386;8.674;2023-10-19T04:25:07;17.20;84.40
18712;DHT22;9485;49.386;8.674;2023-10-19T04:30:31;17.30;84.40
18712;DHT22;9485;49.386;8.674;2023-10-19T04:35:56;17.30;84.40
18712;DHT22;9485;49.386;8.674;2023-10-19T04:41:21;17.30;84.40
18712;DHT22;9485;49.386;8.674;2023-10-19T04:46:41;17.40;84.50
18712;DHT22;9485;49.386;8.674;2023-10-19T04:52:02;17.50;84.60
18712;DHT22;9485;49.386;8.674;2023-10-19T04:57:25;17.50;84.40
18712;DHT22;9485;49.386;8.674;2023-10-19T05:02:46;17.50;84.40
18712;DHT22;9485;49.386;8.674;2023-10-19T05:08:06;17.60;84.60
18712;DHT22;9485;49.386;8.674;2023-10-19T05:13:30;17.60;84.60
18712;DHT22;9485;49.386;8.674;2023-10-19T05:18:52;17.60;84.60
18712;DHT22;9485;49.386;8.674;2023-10-19T05:24:13;17.70;84.50
18712;DHT22;9485;49.386;8.674;2023-10-19T05:29:35;17.60;84.40
18712;DHT22;9485;49.386;8.674;2023-10-19T05:34:56;17.70;84.50
18712;DHT22;9485;49.386;8.674;2023-10-19T05:40:17;17.70;84.50
18712;DHT22;9485;49.386;8.674;2023-10-19T05:45:39;17.70;84.40
18712;DHT22;9485;49.386;8.674;2023-10-19T05:51:00;17.70;84.30
18712;DHT22;9485;49.386;8.674;2023-10-19T05:56:21;17.70;84.20
18712;DHT22;9485;49.386;8.674;2023-10-19T06:01:43;17.60;84.20
18712;DHT22;9485;49.386;8.674;2023-10-19T06:07:06;17.60;84.30
18712;DHT22;9485;49.386;8.674;2023-10-19T06:12:26;17.60;84.30
18712;DHT22;9485;49.386;8.674;2023-10-19T06:17:49;17.60;85.00
18712;DHT22;9485;49.386;8.674;2023-10-19T06:23:11;17.60;84.40
18712;DHT22;9485;49.386;8.674;2023-10-19T06:28:33;17.60;84.50
18712;DHT22;9485;49.386;8.674;2023-10-19T06:33:59;17.60;84.60
18712;DHT22;9485;49.386;8.674;2023-10-19T06:39:21;17.60;84.70
18712;DHT22;9485;49.386;8.674;2023-10-19T06:44:42;17.70;84.70
18712;DHT22;9485;49.386;8.674;2023-10-19T06:50:06;17.70;84.70
18712;DHT22;9485;49.386;8.674;2023-10-19T06:55:29;17.80;84.80
18712;DHT22;9485;49.386;8.674;2023-10-19T07:00:49;17.80;84.80
18712;DHT22;9485;49.386;8.674;2023-10-19T07:06:17;17.80;84.90
18712;DHT22;9485;49.386;8.674;2023-10-19T07:11:38;17.90;85.10
18712;DHT22;9485;49.386;8.674;2023-10-19T07:16:58;18.10;85.20
18712;DHT22;9485;49.386;8.674;2023-10-19T07:22:21;18.20;85.20
18712;DHT22;9485;49.386;8.674;2023-10-19T07:27:42;18.30;85.20
18712;DHT22;9485;49.386;8.674;2023-10-19T07:33:04;18.30;85.20
18712;DHT22;9485;49.386;8.674;2023-10-19T07:38:26;18.40;85.30
18712;DHT22;9485;49.386;8.674;2023-10-19T07:43:51;18.50;85.20
18712;DHT22;9485;49.386;8.674;2023-10-19T07:49:11;18.60;85.10
18712;DHT22;9485;49.386;8.674;2023-10-19T07:54:35;18.70;85.00
18712;DHT22;9485;49.386;8.674;2023-10-19T07:59:57;18.80;84.90
18712;DHT22;9485;49.386;8.674;2023-10-19T08:05:18;18.80;84.90
18712;DHT22;9485;49.386;8.674;2023-10-19T08:10:40;18.90;85.00
18712;DHT22;9485;49.386;8.674;2023-10-19T08:16:01;19.00;85.20
18712;DHT22;9485;49.386;8.674;2023-10-19T08:21:23;19.20;85.30
18712;DHT22;9485;49.386;8.674;2023-10-19T08:26:47;19.30;85.20
18712;DHT22;9485;49.386;8.674;2023-10-19T08:32:07;19.40;85.20
18712;DHT22;9485;49.386;8.674;2023-10-19T08:37:28;19.60;85.30
18712;DHT22;9485;49.386;8.674;2023-10-19T08:42:50;19.70;85.20
18712;DHT22;9485;49.386;8.674;2023-10-19T08:48:11;19.90;85.30
18712;DHT22;9485;49.386;8.674;2023-10-19T08:53:33;20.10;86.20
18712;DHT22;9485;49.386;8.674;2023-10-19T08:59:00;20.50;86.90
18712;DHT22;9485;49.386;8.674;2023-10-19T09:04:21;21.00;86.20
18712;DHT22;9485;49.386;8.674;2023-10-19T09:09:42;21.40;86.50
18712;DHT22;9485;49.386;8.674;2023-10-19T09:15:21;21.90;84.70
18712;DHT22;9485;49.386;8.674;2023-10-19T09:20:47;22.20;83.60
18712;DHT22;9485;49.386;8.674;2023-10-19T09:26:16;22.40;85.10
18712;DHT22;9485;49.386;8.674;2023-10-19T09:31:38;22.80;85.30
18712;DHT22;9485;49.386;8.674;2023-10-19T09:37:01;23.30;85.30
18712;DHT22;9485;49.386;8.674;2023-10-19T09:42:24;23.80;85.20
18712;DHT22;9485;49.386;8.674;2023-10-19T09:47:51;24.50;85.00
18712;DHT22;9485;49.386;8.674;2023-10-19T09:53:13;25.40;84.60
18712;DHT22;9485;49.386;8.674;2023-10-19T09:58:36;26.40;83.90
18712;DHT22;9485;49.386;8.674;2023-10-19T10:04:04;27.30;82.00
18712;DHT22;9485;49.386;8.674;2023-10-19T10:09:26;27.90;78.60
18712;DHT22;9485;49.386;8.674;2023-10-19T10:14:56;28.30;76.60
18712;DHT22;9485;49.386;8.674;2023-10-19T10:20:30;28.50;73.50
18712;DHT22;9485;49.386;8.674;2023-10-19T10:25:53;28.60;70.70
18712;DHT22;9485;49.386;8.674;2023-10-19T10:31:16;28.40;72.10
18712;DHT22;9485;49.386;8.674;2023-10-19T10:37:00;28.10;71.30
18712;DHT22;9485;49.386;8.674;2023-10-19T10:42:22;27.80;70.10
18712;DHT22;9485;49.386;8.674;2023-10-19T10:47:45;27.50;72.60
18712;DHT22;9485;49.386;8.674;2023-10-19T10:53:06;27.20;72.90
18712;DHT22;9485;49.386;8.674;2023-10-19T10:58:27;26.90;72.50
18712;DHT22;9485;49.386;8.674;2023-10-19T11:03:48;26.60;73.20
18712;DHT22;9485;49.386;8.674;2023-10-19T11:09:10;26.20;73.30
18712;DHT22;9485;49.386;8.674;2023-10-19T11:14:33;25.90;73.20
18712;DHT22;9485;49.386;8.674;2023-10-19T11:19:55;25.60;73.80
18712;DHT22;9485;49.386;8.674;2023-10-19T11:25:22;25.30;74.30
18712;DHT22;9485;49.386;8.674;2023-10-19T11:30:47;25.00;73.40
18712;DHT22;9485;49.386;8.674;2023-10-19T11:36:08;24.70;74.40
18712;DHT22;9485;49.386;8.674;2023-10-19T11:41:32;24.40;74.80
18712;DHT22;9485;49.386;8.674;2023-10-19T11:46:53;24.10;75.10
18712;DHT22;9485;49.386;8.674;2023-10-19T11:52:14;23.90;75.70
18712;DHT22;9485;49.386;8.674;2023-10-19T11:57:36;23.70;76.00
18712;DHT22;9485;49.386;8.674;2023-10-19T12:02:57;23.50;76.50
18712;DHT22;9485;49.386;8.674;2023-10-19T12:08:17;23.30;77.10
18712;DHT22;9485;49.386;8.674;2023-10-19T12:13:39;23.10;77.20
18712;DHT22;9485;49.386;8.674;2023-10-19T12:19:00;22.80;77.50
18712;DHT22;9485;49.386;8.674;2023-10-19T12:24:22;22.60;78.70
18712;DHT22;9485;49.386;8.674;2023-10-19T12:29:45;22.30;78.20
18712;DHT22;9485;49.386;8.674;2023-10-19T12:35:06;22.20;78.70
18712;DHT22;9485;49.386;8.674;2023-10-19T12:40:32;21.90;79.50
18712;DHT22;9485;49.386;8.674;2023-10-19T12:45:56;21.70;80.00
18712;DHT22;9485;49.386;8.674;2023-10-19T12:51:17;21.60;80.60
18712;DHT22;9485;49.386;8.674;2023-10-19T12:56:42;21.40;81.40
18712;DHT22;9485;49.386;8.674;2023-10-19T13:02:04;21.30;82.50
18712;DHT22;9485;49.386;8.674;2023-10-19T13:07:27;21.20;83.30
18712;DHT22;9485;49.386;8.674;2023-10-19T13:12:48;21.10;83.70
18712;DHT22;9485;49.386;8.674;2023-10-19T13:18:11;21.10;84.30
18712;DHT22;9485;49.386;8.674;2023-10-19T13:23:38;21.10;84.70
18712;DHT22;9485;49.386;8.674;2023-10-19T13:29:00;21.10;84.80
18712;DHT22;9485;49.386;8.674;2023-10-19T13:34:22;21.10;84.90
18712;DHT22;9485;49.386;8.674;2023-10-19T13:39:43;21.10;84.70
18712;DHT22;9485;49.386;8.674;2023-10-19T13:45:04;21.00;84.60
18712;DHT22;9485;49.386;8.674;2023-10-19T13:50:27;21.00;84.90
18712;DHT22;9485;49.386;8.674;2023-10-19T13:55:49;21.00;85.30
18712;DHT22;9485;49.386;8.674;2023-10-19T14:01:10;20.90;85.70
18712;DHT22;9485;49.386;8.674;2023-10-19T14:06:32;21.00;86.00
18712;DHT22;9485;49.386;8.674;2023-10-19T14:11:53;21.00;86.10
18712;DHT22;9485;49.386;8.674;2023-10-19T14:17:14;21.00;86.30
18712;DHT22;9485;49.386;8.674;2023-10-19T14:22:36;21.10;86.40
18712;DHT22;9485;49.386;8.674;2023-10-19T14:27:58;21.10;86.30
18712;DHT22;9485;49.386;8.674;2023-10-19T14:33:19;21.10;86.30
18712;DHT22;9485;49.386;8.674;2023-10-19T14:38:42;21.00;86.30
18712;DHT22;9485;49.386;8.674;2023-10-19T14:44:05;21.00;86.10
18712;DHT22;9485;49.386;8.674;2023-10-19T14:49:26;21.00;86.00
18712;DHT22;9485;49.386;8.674;2023-10-19T14:54:48;20.90;86.00
18712;DHT22;9485;49.386;8.674;2023-10-19T15:00:12;20.90;85.90
18712;DHT22;9485;49.386;8.674;2023-10-19T15:05:35;20.90;85.90
18712;DHT22;9485;49.386;8.674;2023-10-19T15:10:58;20.80;85.90
18712;DHT22;9485;49.386;8.674;2023-10-19T15:16:19;20.70;86.00
18712;DHT22;9485;49.386;8.674;2023-10-19T15:21:40;20.70;86.60
18712;DHT22;9485;49.386;8.674;2023-10-19T15:27:02;20.70;87.00
18712;DHT22;9485;49.386;8.674;2023-10-19T15:32:23;20.80;86.90
18712;DHT22;9485;49.386;8.674;2023-10-19T15:37:44;20.80;86.50
18712;DHT22;9485;49.386;8.674;2023-10-19T15:43:08;20.80;86.20
18712;DHT22;9485;49.386;8.674;2023-10-19T15:48:31;20.80;86.00
18712;DHT22;9485;49.386;8.674;2023-10-19T15:53:53;20.80;85.90
18712;DHT22;9485;49.386;8.674;2023-10-19T15:59:15;20.80;85.90
18712;DHT22;9485;49.386;8.674;2023-10-19T16:04:36;20.70;85.70
18712;DHT22;9485;49.386;8.674;2023-10-19T16:09:56;20.60;85.70
18712;DHT22;9485;49.386;8.674;2023-10-19T16:15:19;20.60;85.80
18712;DHT22;9485;49.386;8.674;2023-10-19T16:20:39;20.50;85.70
18712;DHT22;9485;49.386;8.674;2023-10-19T16:26:00;20.50;85.70
18712;DHT22;9485;49.386;8.674;2023-10-19T16:31:22;20.40;85.70
18712;DHT22;9485;49.386;8.674;2023-10-19T16:36:43;20.30;85.70
18712;DHT22;9485;49.386;8.674;2023-10-19T16:42:03;20.30;85.80
18712;DHT22;9485;49.386;8.674;2023-10-19T16:47:26;20.20;85.80
18712;DHT22;9485;49.386;8.674;2023-10-19T16:52:47;20.20;85.80
18712;DHT22;9485;49.386;8.674;2023-10-19T16:58:08;20.10;86.00
18712;DHT22;9485;49.386;8.674;2023-10-19T17:03:31;20.10;86.30
18712;DHT22;9485;49.386;8.674;2023-10-19T17:08:51;20.10;86.40
18712;DHT22;9485;49.386;8.674;2023-10-19T17:14:13;20.10;86.60
18712;DHT22;9485;49.386;8.674;2023-10-19T17:19:35;20.10;86.80
18712;DHT22;9485;49.386;8.674;2023-10-19T17:24:56;20.10;86.70
18712;DHT22;9485;49.386;8.674;2023-10-19T17:30:16;20.10;86.70
18712;DHT22;9485;49.386;8.674;2023-10-19T17:35:39;20.10;86.80
18712;DHT22;9485;49.386;8.674;2023-10-19T17:41:00;20.10;86.70
18712;DHT22;9485;49.386;8.674;2023-10-19T17:46:21;20.00;86.70
18712;DHT22;9485;49.386;8.674;2023-10-19T17:51:43;20.00;86.70
18712;DHT22;9485;49.386;8.674;2023-10-19T17:57:05;19.90;86.70
18712;DHT22;9485;49.386;8.674;2023-10-19T18:02:26;19.90;86.90
18712;DHT22;9485;49.386;8.674;2023-10-19T18:07:49;19.90;86.90
18712;DHT22;9485;49.386;8.674;2023-10-19T18:13:12;19.80;87.10
18712;DHT22;9485;49.386;8.674;2023-10-19T18:18:33;19.70;87.20
18712;DHT22;9485;49.386;8.674;2023-10-19T18:23:55;19.70;87.50
18712;DHT22;9485;49.386;8.674;2023-10-19T18:29:15;19.60;87.50
18712;DHT22;9485;49.386;8.674;2023-10-19T18:34:36;19.60;87.80
18712;DHT22;9485;49.386;8.674;2023-10-19T18:39:58;19.50;87.80
18712;DHT22;9485;49.386;8.674;2023-10-19T18:45:19;19.50;88.00
18712;DHT22;9485;49.386;8.674;2023-10-19T18:50:39;19.50;88.00
18712;DHT22;9485;49.386;8.674;2023-10-19T18:56:03;19.50;88.10
18712;DHT22;9485;49.386;8.674;2023-10-19T19:01:25;19.50;88.30
18712;DHT22;9485;49.386;8.674;2023-10-19T19:06:46;19.50;88.20
18712;DHT22;9485;49.386;8.674;2023-10-19T19:12:08;19.50;88.30
18712;DHT22;9485;49.386;8.674;2023-10-19T19:17:29;19.50;88.30
18712;DHT22;9485;49.386;8.674;2023-10-19T19:22:50;19.50;88.30
18712;DHT22;9485;49.386;8.674;2023-10-19T19:28:13;19.50;88.30
18712;DHT22;9485;49.386;8.674;2023-10-19T19:33:35;19.50;88.30
18712;DHT22;9485;49.386;8.674;2023-10-19T19:38:57;19.50;88.40
18712;DHT22;9485;49.386;8.674;2023-10-19T19:44:19;19.50;88.40
18712;DHT22;9485;49.386;8.674;2023-10-19T19:49:41;19.50;88.40
18712;DHT22;9485;49.386;8.674;2023-10-19T19:55:03;19.50;88.50
18712;DHT22;9485;49.386;8.674;2023-10-19T20:00:25;19.50;88.40
18712;DHT22;9485;49.386;8.674;2023-10-19T20:05:46;19.50;88.50
18712;DHT22;9485;49.386;8.674;2023-10-19T20:11:08;19.60;88.50
18712;DHT22;9485;49.386;8.674;2023-10-19T20:16:29;19.60;88.60
18712;DHT22;9485;49.386;8.674;2023-10-19T20:21:50;19.60;88.60
18712;DHT22;9485;49.386;8.674;2023-10-19T20:27:11;19.60;88.50
18712;DHT22;9485;49.386;8.674;2023-10-19T20:32:33;19.60;88.50
18712;DHT22;9485;49.386;8.674;2023-10-19T20:37:54;19.70;88.50
18712;DHT22;9485;49.386;8.674;2023-10-19T20:43:15;19.70;88.50
18712;DHT22;9485;49.386;8.674;2023-10-19T20:48:39;19.70;88.50
18712;DHT22;9485;49.386;8.674;2023-10-19T20:54:00;19.70;88.40
18712;DHT22;9485;49.386;8.674;2023-10-19T20:59:22;19.70;88.50
18712;DHT22;9485;49.386;8.674;2023-10-19T21:04:44;19.70;88.50
18712;DHT22;9485;49.386;8.674;2023-10-19T21:10:06;19.80;88.40
18712;DHT22;9485;49.386;8.674;2023-10-19T21:15:29;19.80;88.30
18712;DHT22;9485;49.386;8.674;2023-10-19T21:20:56;19.80;88.20
18712;DHT22;9485;49.386;8.674;2023-10-19T21:26:18;19.70;87.90
18712;DHT22;9485;49.386;8.674;2023-10-19T21:31:38;19.70;88.00
18712;DHT22;9485;49.386;8.674;2023-10-19T21:37:00;19.70;88.10
18712;DHT22;9485;49.386;8.674;2023-10-19T21:42:22;19.70;88.10
18712;DHT22;9485;49.386;8.674;2023-10-19T21:47:43;19.60;88.30
18712;DHT22;9485;49.386;8.674;2023-10-19T21:53:05;19.60;88.30
18712;DHT22;9485;49.386;8.674;2023-10-19T21:58:26;19.60;88.20
18712;DHT22;9485;49.386;8.674;2023-10-19T22:03:47;19.60;88.30
18712;DHT22;9485;49.386;8.674;2023-10-19T22:09:09;19.60;88.20
18712;DHT22;9485;49.386;8.674;2023-10-19T22:14:35;19.60;88.20
18712;DHT22;9485;49.386;8.674;2023-10-19T22:19:55;19.50;88.20
18712;DHT22;9485;49.386;8.674;2023-10-19T22:25:17;19.60;88.20
18712;DHT22;9485;49.386;8.674;2023-10-19T22:30:40;19.60;88.00
18712;DHT22;9485;49.386;8.674;2023-10-19T22:36:02;19.60;87.90
18712;DHT22;9485;49.386;8.674;2023-10-19T22:41:24;19.70;87.80
18712;DHT22;9485;49.386;8.674;2023-10-19T22:46:46;19.70;87.30
18712;DHT22;9485;49.386;8.674;2023-10-19T22:52:07;19.70;87.40
18712;DHT22;9485;49.386;8.674;2023-10-19T22:57:29;19.70;87.30
18712;DHT22;9485;49.386;8.674;2023-10-19T23:02:50;19.70;87.20
18712;DHT22;9485;49.386;8.674;2023-10-19T23:08:10;19.60;87.00
18712;DHT22;9485;49.386;8.674;2023-10-19T23:13:33;19.60;86.90
18712;DHT22;9485;49.386;8.674;2023-10-19T23:18:56;19.60;86.80
18712;DHT22;9485;49.386;8.674;2023-10-19T23:24:19;19.50;86.70
18712;DHT22;9485;49.386;8.674;2023-10-19T23:29:50;19.40;86.80
18712;DHT22;9485;49.386;8.674;2023-10-19T23:35:10;19.40;86.90
18712;DHT22;9485;49.386;8.674;2023-10-19T23:40:31;19.40;87.10
18712;DHT22;9485;49.386;8.674;2023-10-19T23:45:54;19.30;87.40
18712;DHT22;9485;49.386;8.674;2023-10-19T23:51:14;19.30;87.50
18712;DHT22;9485;49.386;8.674;2023-10-19T23:56:36;19.30;87.50
